METAR Data
IDs: Format: Raw Decoded Include TAF

Data at: 2358 UTC 25 Oct 2021

PAEG 252353Z AUTO 00000KT 10SM CLR M03/M05 A2918 RMK AO2 SLP895 I1000 I6000 T10281050 11022 21072 56007 TSNO
PAEG 252253Z AUTO 00000KT 10SM CLR M03/M05 A2918 RMK AO2 SLP897 T10281050 TSNO
PAEG 252153Z AUTO 00000KT 10SM CLR M03/M06 A2919 RMK AO2 SLP899 T10331056 TSNO
PAEG 252053Z AUTO 00000KT 10SM SCT004 M04/M06 A2920 RMK AO2 SLP902 T10441061 57002 TSNO
PAEG 252049Z AUTO 00000KT 10SM FEW004 M04/M07 A2920 RMK AO2 TSNO
PAEG 251953Z AUTO 00000KT 10SM OVC006 M06/M07 A2921 RMK AO2 SLP905 T10561072 TSNO
PAEG 251949Z AUTO 00000KT 10SM OVC006 M06/M07 A2921 RMK AO2 TSNO
PAEG 251911Z AUTO 00000KT 3SM BR OVC003 M06/M08 A2921 RMK AO2 T10611078 TSNO
PAEG 251906Z AUTO 00000KT 1 1/2SM BR OVC003 M06/M08 A2921 RMK AO2 T10611078 TSNO
PAEG 251853Z AUTO 00000KT 1/2SM FZFG OVC003 M06/M08 A2921 RMK AO2 SLP907 T10611078 TSNO
PAEG 251838Z AUTO 00000KT 1/2SM FZFG OVC002 M07/M08 A2921 RMK AO2 T10671078 TSNO
PAEG 251828Z AUTO 00000KT 1 1/2SM BR OVC002 M07/M08 A2921 RMK AO2 VIS 1/2V5 T10671083 TSNO
PAEG 251753Z AUTO 00000KT 3SM BR OVC003 M07/M09 A2922 RMK AO2 SLP909 T10721089 11072 21128 58005 TSNO